createdAt,value
2019-06-26T00:01:07.881Z,51.32
2019-06-26T00:03:38.749Z,51.53
2019-06-26T00:06:09.183Z,51.59
2019-06-26T00:08:39.542Z,52.39
2019-06-26T00:11:09.990Z,52.19
2019-06-26T00:13:40.713Z,52.21
2019-06-26T00:16:11.385Z,52.74
2019-06-26T00:18:42.002Z,52.65
2019-06-26T00:21:12.882Z,52.75
2019-06-26T00:23:43.437Z,52.67
2019-06-26T00:26:13.769Z,52.62
2019-06-26T00:28:44.513Z,52.66
2019-06-26T00:31:15.041Z,52.41
2019-06-26T00:33:45.919Z,52.32
2019-06-26T00:36:16.552Z,52.28
2019-06-26T00:38:47.131Z,52.10
2019-06-26T00:41:18.115Z,52.18
2019-06-26T00:43:49.093Z,52.53
2019-06-26T00:46:19.481Z,53.04
2019-06-26T00:48:50.489Z,53.09
2019-06-26T00:51:21.170Z,54.03
2019-06-26T00:53:51.618Z,53.26
2019-06-26T00:56:22.108Z,53.62
2019-06-26T00:58:52.526Z,52.77
2019-06-26T01:01:23.256Z,52.85
2019-06-26T01:03:55.291Z,53.30
2019-06-26T01:06:44.246Z,53.32
2019-06-26T01:09:15.339Z,53.40
2019-06-26T01:11:45.746Z,53.91
2019-06-26T01:14:16.183Z,54.21
2019-06-26T01:16:46.921Z,53.30
2019-06-26T01:19:17.521Z,53.59
2019-06-26T01:21:48.397Z,54.03
2019-06-26T01:24:20.589Z,54.41
2019-06-26T01:26:51.220Z,54.82
2019-06-26T01:29:21.979Z,55.33
2019-06-26T01:31:52.302Z,54.87
2019-06-26T01:34:23.020Z,54.79
2019-06-26T01:36:53.530Z,55.31
2019-06-26T01:39:25.574Z,54.83
2019-06-26T01:41:55.942Z,54.79
2019-06-26T01:44:26.932Z,54.72
2019-06-26T01:46:57.283Z,54.70
2019-06-26T01:49:28.293Z,54.20
2019-06-26T01:51:58.882Z,54.06
2019-06-26T01:54:30.199Z,54.20
2019-06-26T01:57:00.505Z,54.05
2019-06-26T01:59:31.038Z,54.05
2019-06-26T02:02:01.470Z,54.29
2019-06-26T02:04:31.918Z,54.02
2019-06-26T02:07:02.295Z,53.97
2019-06-26T02:09:33.238Z,54.23
2019-06-26T02:12:03.830Z,54.54
2019-06-26T02:14:34.204Z,54.75
2019-06-26T02:17:05.323Z,54.66
2019-06-26T02:19:35.739Z,55.50
2019-06-26T02:22:06.339Z,54.98
2019-06-26T02:24:37.110Z,55.07
2019-06-26T02:27:07.519Z,55.22
2019-06-26T02:29:37.922Z,55.08
2019-06-26T02:32:08.318Z,55.19
2019-06-26T02:34:38.805Z,54.98
2019-06-26T02:37:09.414Z,55.43
2019-06-26T02:39:41.291Z,55.88
2019-06-26T02:42:12.310Z,55.83
2019-06-26T02:44:52.946Z,56.21
2019-06-26T02:47:20.307Z,56.34
2019-06-26T02:49:47.019Z,55.98
2019-06-26T02:52:17.913Z,55.70
2019-06-26T02:54:48.519Z,56.09
2019-06-26T02:57:18.911Z,56.71
2019-06-26T02:59:49.329Z,56.88
2019-06-26T03:02:20.616Z,56.85
2019-06-26T03:04:50.994Z,56.84
2019-06-26T03:07:22.192Z,56.74
2019-06-26T03:09:52.989Z,57.16
2019-06-26T03:12:23.361Z,56.70
2019-06-26T03:15:08.175Z,57.05
2019-06-26T03:17:27.036Z,57.46
2019-06-26T03:19:57.841Z,57.12
2019-06-26T03:22:28.177Z,57.01
2019-06-26T03:24:58.606Z,57.56
2019-06-26T03:27:29.040Z,57.39
2019-06-26T03:29:59.397Z,57.64
2019-06-26T03:32:29.829Z,57.61
2019-06-26T03:35:00.873Z,58.29
2019-06-26T03:37:31.181Z,58.39
2019-06-26T03:40:02.259Z,57.84
2019-06-26T03:42:32.608Z,58.11
2019-06-26T03:45:03.105Z,57.84
2019-06-26T03:47:33.503Z,57.65
2019-06-26T03:50:04.485Z,57.43
2019-06-26T03:52:35.150Z,57.62
2019-06-26T03:55:05.864Z,57.56
2019-06-26T03:57:36.534Z,58.23
2019-06-26T04:00:07.658Z,57.93
2019-06-26T04:02:38.207Z,57.77
2019-06-26T04:05:09.338Z,58.41
2019-06-26T04:07:39.934Z,58.30
2019-06-26T04:10:10.716Z,58.87
2019-06-26T04:12:41.298Z,58.34
2019-06-26T04:15:11.780Z,57.42
2019-06-26T04:17:42.608Z,57.71
2019-06-26T04:20:13.142Z,58.40
2019-06-26T04:22:43.647Z,58.53
2019-06-26T04:25:14.549Z,58.54
2019-06-26T04:27:44.873Z,58.99
2019-06-26T04:30:15.689Z,59.52
2019-06-26T04:32:45.984Z,59.54
2019-06-26T04:35:16.434Z,58.99
2019-06-26T04:37:46.932Z,58.61
2019-06-26T04:40:20.373Z,58.93
2019-06-26T04:42:49.537Z,57.93
2019-06-26T04:45:20.463Z,57.64
2019-06-26T04:47:51.063Z,58.26
2019-06-26T04:50:21.793Z,57.87
2019-06-26T04:52:52.662Z,57.50
2019-06-26T04:55:23.145Z,57.48
2019-06-26T04:57:53.584Z,57.44
2019-06-26T05:00:25.065Z,57.18
2019-06-26T05:02:56.026Z,56.70
2019-06-26T05:05:39.045Z,56.51
2019-06-26T05:07:59.374Z,56.84
2019-06-26T05:10:30.052Z,56.63
2019-06-26T05:13:00.972Z,56.72
2019-06-26T05:15:31.558Z,56.38
2019-06-26T05:18:01.897Z,55.97
2019-06-26T05:20:32.219Z,56.46
2019-06-26T05:23:02.883Z,56.11
2019-06-26T05:25:33.517Z,56.11
2019-06-26T05:28:03.956Z,55.93
2019-06-26T05:30:34.543Z,55.22
2019-06-26T05:33:05.184Z,54.87
2019-06-26T05:35:35.797Z,55.26
2019-06-26T05:38:06.953Z,54.36
2019-06-26T05:40:38.362Z,53.97
2019-06-26T05:43:08.988Z,53.40
2019-06-26T05:45:39.692Z,53.00
2019-06-26T05:48:10.432Z,52.80
2019-06-26T05:50:40.775Z,52.90
2019-06-26T05:53:11.971Z,52.64
2019-06-26T05:55:42.349Z,52.39
2019-06-26T05:58:12.922Z,51.65
2019-06-26T06:00:43.553Z,52.00
2019-06-26T06:03:14.409Z,51.93
2019-06-26T06:05:46.201Z,51.84
2019-06-26T06:08:16.545Z,51.62
2019-06-26T06:10:46.928Z,51.45
2019-06-26T06:13:17.584Z,51.70
2019-06-26T06:15:48.074Z,51.42
2019-06-26T06:18:18.702Z,51.21
2019-06-26T06:20:49.596Z,50.89
2019-06-26T06:23:19.937Z,50.78
2019-06-26T06:25:50.915Z,50.44
2019-06-26T06:28:21.560Z,49.95
2019-06-26T06:30:52.246Z,50.54
2019-06-26T06:33:22.820Z,50.15
2019-06-26T06:35:53.408Z,50.25
2019-06-26T06:38:23.759Z,49.84
2019-06-26T06:40:54.158Z,50.33
2019-06-26T06:43:24.976Z,50.43
2019-06-26T06:45:56.066Z,50.28
2019-06-26T06:48:26.997Z,50.93
2019-06-26T06:50:57.352Z,51.12
2019-06-26T06:53:27.934Z,50.75
2019-06-26T06:55:58.285Z,50.62
2019-06-26T06:58:30.231Z,49.79
2019-06-26T07:01:00.838Z,49.79
2019-06-26T07:03:31.165Z,49.55
2019-06-26T07:06:01.640Z,49.71
2019-06-26T07:08:32.280Z,48.97
2019-06-26T07:11:02.728Z,49.16
2019-06-26T07:13:33.078Z,48.27
2019-06-26T07:16:03.406Z,48.55
2019-06-26T07:18:33.928Z,48.25
2019-06-26T07:21:04.360Z,47.86
2019-06-26T07:23:35.235Z,47.94
2019-06-26T07:26:05.645Z,47.85
2019-06-26T07:28:36.165Z,47.30
2019-06-26T07:31:07.124Z,47.38
2019-06-26T07:33:37.863Z,46.22
2019-06-26T07:36:08.293Z,45.57
2019-06-26T07:38:39.199Z,46.21
2019-06-26T07:41:09.966Z,46.32
2019-06-26T07:43:42.015Z,45.66
2019-06-26T07:46:12.948Z,45.95
2019-06-26T07:48:43.594Z,44.86
2019-06-26T07:51:14.069Z,44.11
2019-06-26T07:53:44.436Z,44.61
2019-06-26T07:56:15.323Z,44.26
2019-06-26T07:58:46.216Z,44.27
2019-06-26T08:01:16.546Z,44.27
2019-06-26T08:03:46.898Z,43.68
2019-06-26T08:06:17.492Z,43.35
2019-06-26T08:08:47.870Z,42.88
2019-06-26T08:11:18.299Z,43.09
2019-06-26T08:13:48.975Z,43.23
2019-06-26T08:16:19.289Z,43.23
2019-06-26T08:18:49.655Z,43.49
2019-06-26T08:21:20.059Z,43.81
2019-06-26T08:23:50.418Z,43.02
2019-06-26T08:26:21.056Z,42.66
2019-06-26T08:28:52.193Z,42.50
2019-06-26T08:31:23.041Z,42.23
2019-06-26T08:33:53.733Z,42.16
2019-06-26T08:36:24.595Z,41.22
2019-06-26T08:38:55.210Z,41.52
2019-06-26T08:41:25.835Z,41.58
2019-06-26T08:43:56.711Z,40.33
2019-06-26T08:46:27.265Z,40.94
2019-06-26T08:48:58.257Z,41.18
2019-06-26T08:51:28.605Z,41.08
2019-06-26T08:53:59.162Z,40.64
2019-06-26T08:56:29.516Z,40.27
2019-06-26T08:59:00.086Z,41.05
2019-06-26T09:01:30.963Z,41.09
2019-06-26T09:04:01.314Z,40.90
2019-06-26T09:06:33.641Z,40.70
2019-06-26T09:09:04.571Z,40.13
2019-06-26T09:11:35.114Z,39.69
2019-06-26T09:14:06.531Z,40.08
2019-06-26T09:16:37.090Z,40.18
2019-06-26T09:19:07.665Z,39.78
2019-06-26T09:21:38.027Z,40.39
2019-06-26T09:24:09.334Z,39.75
2019-06-26T09:26:39.677Z,39.88
2019-06-26T09:29:10.028Z,40.57
2019-06-26T09:31:40.344Z,39.73
2019-06-26T09:34:10.726Z,39.48
2019-06-26T09:36:41.296Z,39.90
2019-06-26T09:39:11.764Z,39.89
2019-06-26T09:41:42.067Z,40.11
2019-06-26T09:44:12.483Z,39.98
2019-06-26T09:46:43.050Z,39.57
2019-06-26T09:49:13.411Z,38.76
2019-06-26T09:51:43.726Z,39.33
2019-06-26T09:54:14.573Z,39.42
2019-06-26T09:56:44.888Z,40.14
2019-06-26T09:59:15.525Z,40.08
2019-06-26T10:01:45.924Z,40.88
2019-06-26T10:04:16.496Z,39.66
2019-06-26T10:06:46.798Z,40.21
2019-06-26T10:09:17.200Z,40.22
2019-06-26T10:11:47.494Z,40.06
2019-06-26T10:14:18.346Z,40.19
2019-06-26T10:16:49.424Z,39.51
2019-06-26T10:19:20.244Z,39.68
2019-06-26T10:21:50.584Z,38.78
2019-06-26T10:24:22.371Z,40.82
2019-06-26T10:26:52.712Z,40.81
2019-06-26T10:29:23.311Z,40.30
2019-06-26T10:31:53.688Z,39.72
2019-06-26T10:34:24.027Z,40.19
2019-06-26T10:36:54.379Z,39.93
2019-06-26T10:39:24.898Z,39.28
2019-06-26T10:41:55.399Z,39.72
2019-06-26T10:44:26.248Z,40.37
2019-06-26T10:46:56.837Z,39.89
2019-06-26T10:49:27.917Z,39.61
2019-06-26T10:51:58.435Z,39.51
2019-06-26T10:54:29.055Z,39.95
2019-06-26T10:56:59.762Z,39.31
2019-06-26T10:59:30.922Z,40.80
2019-06-26T11:02:01.517Z,40.11
2019-06-26T11:04:32.109Z,39.62
2019-06-26T11:07:02.426Z,38.92
2019-06-26T11:09:32.778Z,40.80
2019-06-26T11:12:03.339Z,40.49
2019-06-26T11:14:33.796Z,41.10
2019-06-26T11:17:04.137Z,39.36
2019-06-26T11:19:43.931Z,38.97
2019-06-26T11:22:07.630Z,37.54
2019-06-26T11:24:38.675Z,37.72
2019-06-26T11:27:09.099Z,38.03
2019-06-26T11:29:40.066Z,38.01
2019-06-26T11:32:10.881Z,38.59
2019-06-26T11:34:41.474Z,38.84
2019-06-26T11:37:11.790Z,38.22
2019-06-26T11:39:42.836Z,36.62
2019-06-26T11:42:13.178Z,37.81
2019-06-26T11:44:43.961Z,37.63
2019-06-26T11:47:14.365Z,37.67
2019-06-26T11:49:59.081Z,37.46
2019-06-26T11:52:17.408Z,37.46
2019-06-26T11:55:01.308Z,37.39
2019-06-26T11:57:20.916Z,37.08
2019-06-26T11:59:51.691Z,36.22
2019-06-26T12:02:23.377Z,36.19
2019-06-26T12:04:53.840Z,36.02
2019-06-26T12:07:24.524Z,36.54
2019-06-26T12:09:55.388Z,35.91
2019-06-26T12:12:26.012Z,35.97
2019-06-26T12:14:56.348Z,35.92
2019-06-26T12:17:26.984Z,36.12
2019-06-26T12:19:57.292Z,36.77
2019-06-26T12:22:29.944Z,37.44
2019-06-26T12:25:00.751Z,37.14
2019-06-26T12:27:31.350Z,35.96
2019-06-26T12:30:01.670Z,33.05
2019-06-26T12:32:41.796Z,33.05
2019-06-26T12:35:06.056Z,32.69
2019-06-26T12:37:38.011Z,30.81
2019-06-26T12:40:08.950Z,30.61
2019-06-26T12:42:39.407Z,27.88
2019-06-26T12:45:10.488Z,27.72
2019-06-26T12:47:40.833Z,27.43
2019-06-26T12:50:12.252Z,28.83
2019-06-26T12:52:42.652Z,29.61
2019-06-26T12:55:13.458Z,30.33
2019-06-26T12:57:43.852Z,30.69
2019-06-26T13:00:14.703Z,30.75
2019-06-26T13:02:45.132Z,31.69
2019-06-26T13:05:16.015Z,32.12
2019-06-26T13:07:46.671Z,31.17
2019-06-26T13:10:18.551Z,30.67
2019-06-26T13:12:48.964Z,30.30
2019-06-26T13:15:19.340Z,30.41
2019-06-26T13:17:49.907Z,29.99
2019-06-26T13:20:20.440Z,31.56
2019-06-26T13:22:52.435Z,30.90
2019-06-26T13:25:22.834Z,30.23
2019-06-26T13:27:53.260Z,31.46
2019-06-26T13:30:31.037Z,30.46
2019-06-26T13:33:01.691Z,30.06
2019-06-26T13:35:32.258Z,30.78
2019-06-26T13:38:02.608Z,30.56
2019-06-26T13:40:33.265Z,30.90
2019-06-26T13:43:04.337Z,31.19
2019-06-26T13:45:35.288Z,31.98
2019-06-26T13:48:05.700Z,31.87
2019-06-26T13:50:36.012Z,31.77
2019-06-26T13:53:06.410Z,31.72
2019-06-26T13:55:36.986Z,31.58
2019-06-26T13:58:07.605Z,31.78
2019-06-26T14:00:38.153Z,31.62
2019-06-26T14:03:08.818Z,31.64
2019-06-26T14:05:40.079Z,31.25
2019-06-26T14:08:10.402Z,30.86
2019-06-26T14:10:40.697Z,31.05
2019-06-26T14:13:11.986Z,30.35
2019-06-26T14:15:42.862Z,29.64
2019-06-26T14:18:13.403Z,30.02
2019-06-26T14:20:44.321Z,29.30
2019-06-26T14:23:15.153Z,30.37
2019-06-26T14:25:45.781Z,30.56
2019-06-26T14:28:19.588Z,30.45
2019-06-26T14:30:48.981Z,32.12
2019-06-26T14:33:19.305Z,32.38
2019-06-26T14:35:49.906Z,32.08
2019-06-26T14:38:20.506Z,32.84
2019-06-26T14:40:50.892Z,31.79
2019-06-26T14:43:21.410Z,32.05
2019-06-26T14:45:52.056Z,32.11
2019-06-26T14:48:22.400Z,32.81
2019-06-26T14:50:52.701Z,32.63
2019-06-26T14:53:23.076Z,33.75
2019-06-26T14:55:53.984Z,33.92
2019-06-26T14:58:25.155Z,33.98
2019-06-26T15:00:55.736Z,33.80
2019-06-26T15:03:26.303Z,33.87
2019-06-26T15:05:56.731Z,34.72
2019-06-26T15:08:27.112Z,34.63
2019-06-26T15:10:58.283Z,34.53
2019-06-26T15:13:28.639Z,35.35
2019-06-26T15:15:59.231Z,35.13
2019-06-26T15:18:29.625Z,36.13
2019-06-26T15:21:00.946Z,35.95
2019-06-26T15:23:31.607Z,36.50
2019-06-26T15:26:02.196Z,36.24
2019-06-26T15:28:32.684Z,36.87
2019-06-26T15:31:02.989Z,36.92
2019-06-26T15:33:36.572Z,36.41
2019-06-26T15:36:05.769Z,36.75
2019-06-26T15:38:36.402Z,35.79
2019-06-26T15:41:06.706Z,35.96
2019-06-26T15:43:37.061Z,36.45
2019-06-26T15:46:08.385Z,36.58
2019-06-26T15:48:38.788Z,36.55
2019-06-26T15:51:09.122Z,38.03
2019-06-26T15:53:39.482Z,37.72
2019-06-26T15:56:10.338Z,36.97
2019-06-26T15:58:40.688Z,37.57
2019-06-26T16:01:11.145Z,37.54
2019-06-26T16:03:41.647Z,37.57
2019-06-26T16:06:11.970Z,37.64
2019-06-26T16:08:42.698Z,38.02
2019-06-26T16:11:13.265Z,37.96
2019-06-26T16:13:44.399Z,39.01
2019-06-26T16:16:15.059Z,38.92
2019-06-26T16:18:49.900Z,38.14
2019-06-26T16:21:20.229Z,38.57
2019-06-26T16:23:50.583Z,39.59
2019-06-26T16:26:20.887Z,39.62
2019-06-26T16:28:51.246Z,38.80
2019-06-26T16:31:21.581Z,39.16
2019-06-26T16:33:51.977Z,39.57
2019-06-26T16:36:22.624Z,39.69
2019-06-26T16:38:53.044Z,39.09
2019-06-26T16:41:24.066Z,39.56
2019-06-26T16:43:54.692Z,39.69
2019-06-26T16:46:25.130Z,40.00
2019-06-26T16:48:55.926Z,39.85
2019-06-26T16:51:26.485Z,40.18
2019-06-26T16:53:56.818Z,40.48
2019-06-26T16:56:27.154Z,40.72
2019-06-26T16:58:58.466Z,40.47
2019-06-26T17:01:29.042Z,40.80
2019-06-26T17:03:59.468Z,40.83
2019-06-26T17:06:31.022Z,40.82
2019-06-26T17:09:01.408Z,41.23
2019-06-26T17:11:33.412Z,40.13
2019-06-26T17:14:04.261Z,40.68
2019-06-26T17:16:34.935Z,40.63
2019-06-26T17:19:05.278Z,40.68
2019-06-26T17:21:35.667Z,40.58
2019-06-26T17:24:06.116Z,41.38
2019-06-26T17:26:36.548Z,41.02
2019-06-26T17:29:08.366Z,40.65
2019-06-26T17:31:40.860Z,41.21
2019-06-26T17:34:11.820Z,41.59
2019-06-26T17:36:43.470Z,41.22
2019-06-26T17:39:14.216Z,41.12
2019-06-26T17:41:45.267Z,41.18
2019-06-26T17:44:15.772Z,41.69
2019-06-26T17:46:46.151Z,42.55
2019-06-26T17:49:16.651Z,42.06
2019-06-26T17:51:47.596Z,42.07
2019-06-26T17:54:18.098Z,41.92
2019-06-26T17:56:48.929Z,42.28
2019-06-26T17:59:19.512Z,42.01
2019-06-26T18:01:49.982Z,42.33
2019-06-26T18:04:20.454Z,41.93
2019-06-26T18:06:51.767Z,42.38
2019-06-26T18:09:22.180Z,42.28
2019-06-26T18:11:53.147Z,42.59
2019-06-26T18:14:23.985Z,42.89
2019-06-26T18:16:54.353Z,42.49
2019-06-26T18:19:24.978Z,41.24
2019-06-26T18:21:56.556Z,41.11
2019-06-26T18:24:27.441Z,41.31
2019-06-26T18:26:58.066Z,41.81
2019-06-26T18:29:28.405Z,43.27
2019-06-26T18:31:59.543Z,43.57
2019-06-26T18:34:30.039Z,43.52
2019-06-26T18:37:00.697Z,43.65
2019-06-26T18:39:31.024Z,44.08
2019-06-26T18:42:01.473Z,44.40
2019-06-26T18:44:32.066Z,44.42
2019-06-26T18:47:02.784Z,45.06
2019-06-26T18:49:33.618Z,44.99
2019-06-26T18:52:07.654Z,45.02
2019-06-26T18:54:36.574Z,45.33
2019-06-26T18:57:07.273Z,45.08
2019-06-26T18:59:37.840Z,44.98
2019-06-26T19:02:08.191Z,44.81
2019-06-26T19:04:38.793Z,44.87
2019-06-26T19:07:09.128Z,44.57
2019-06-26T19:09:39.812Z,44.01
2019-06-26T19:12:10.628Z,44.35
2019-06-26T19:14:41.233Z,44.67
2019-06-26T19:17:11.726Z,44.98
2019-06-26T19:19:42.336Z,44.67
2019-06-26T19:22:13.266Z,45.03
2019-06-26T19:24:43.910Z,44.92
2019-06-26T19:27:14.310Z,45.06
2019-06-26T19:29:44.711Z,45.46
2019-06-26T19:32:15.177Z,44.92
2019-06-26T19:34:46.082Z,44.93
2019-06-26T19:37:16.726Z,45.02
2019-06-26T19:39:48.851Z,45.15
2019-06-26T19:42:19.741Z,44.76
2019-06-26T19:44:50.501Z,45.24
2019-06-26T19:47:21.149Z,45.02
2019-06-26T19:49:53.150Z,44.98
2019-06-26T19:52:23.525Z,45.73
2019-06-26T19:54:54.277Z,47.03
2019-06-26T19:57:24.881Z,46.75
2019-06-26T19:59:55.766Z,46.68
2019-06-26T20:02:26.247Z,46.51
2019-06-26T20:04:57.243Z,46.57
2019-06-26T20:07:28.180Z,47.06
2019-06-26T20:10:01.716Z,47.25
2019-06-26T20:12:31.468Z,47.77
2019-06-26T20:15:02.022Z,47.36
2019-06-26T20:17:32.320Z,48.36
2019-06-26T20:20:04.010Z,47.95
2019-06-26T20:22:34.488Z,48.58
2019-06-26T20:25:05.418Z,48.83
2019-06-26T20:27:36.252Z,49.15
2019-06-26T20:30:09.854Z,49.70
2019-06-26T20:32:39.332Z,50.12
2019-06-26T20:35:10.016Z,50.28
2019-06-26T20:37:40.404Z,50.16
2019-06-26T20:40:11.335Z,50.17
2019-06-26T20:42:41.810Z,50.30
2019-06-26T20:45:12.256Z,50.17
2019-06-26T20:47:43.467Z,50.29
2019-06-26T20:50:13.988Z,50.29
2019-06-26T20:52:44.672Z,50.75
2019-06-26T20:55:15.163Z,51.19
2019-06-26T20:57:45.529Z,51.90
2019-06-26T21:00:16.943Z,52.58
2019-06-26T21:02:47.582Z,52.90
2019-06-26T21:05:18.196Z,53.80
2019-06-26T21:07:48.571Z,52.93
2019-06-26T21:10:23.143Z,53.10
2019-06-26T21:12:53.524Z,54.30
2019-06-26T21:15:23.983Z,54.82
2019-06-26T21:17:54.607Z,55.30
2019-06-26T21:20:25.519Z,55.43
2019-06-26T21:22:56.215Z,55.09
2019-06-26T21:25:27.535Z,55.25
2019-06-26T21:27:58.714Z,55.10
2019-06-26T21:30:29.225Z,55.28
2019-06-26T21:32:59.789Z,56.45
2019-06-26T21:35:31.503Z,56.65
2019-06-26T21:38:02.559Z,57.19
2019-06-26T21:40:33.870Z,58.20
2019-06-26T21:43:04.297Z,58.29
2019-06-26T21:45:34.729Z,58.74
2019-06-26T21:48:05.195Z,58.83
2019-06-26T21:50:36.073Z,58.76
2019-06-26T21:53:06.514Z,59.30
2019-06-26T21:55:38.247Z,59.15
2019-06-26T21:58:26.120Z,59.70
2019-06-26T22:01:14.066Z,59.10
2019-06-26T22:04:02.511Z,59.11
2019-06-26T22:06:37.534Z,59.53
2019-06-26T22:09:21.546Z,59.68
2019-06-26T22:11:52.024Z,59.68
2019-06-26T22:14:22.479Z,59.35
2019-06-26T22:16:53.182Z,59.61
2019-06-26T22:19:24.580Z,59.22
2019-06-26T22:21:55.196Z,59.43
2019-06-26T22:24:26.131Z,60.30
2019-06-26T22:26:56.484Z,60.30
2019-06-26T22:29:27.169Z,60.93
2019-06-26T22:31:57.498Z,60.00
2019-06-26T22:34:28.452Z,60.45
2019-06-26T22:36:59.302Z,61.88
2019-06-26T22:39:30.397Z,61.94
2019-06-26T22:42:01.088Z,60.96
2019-06-26T22:44:31.796Z,61.23
2019-06-26T22:47:02.203Z,62.17
2019-06-26T22:49:32.583Z,62.45
2019-06-26T22:52:03.368Z,62.57
2019-06-26T22:54:33.829Z,62.17
2019-06-26T22:57:04.938Z,62.63
2019-06-26T22:59:35.261Z,62.04
2019-06-26T23:02:05.648Z,62.27
2019-06-26T23:04:36.594Z,62.06
2019-06-26T23:07:07.263Z,61.47
2019-06-26T23:09:37.890Z,61.37
2019-06-26T23:12:08.502Z,62.31
2019-06-26T23:14:39.498Z,61.55
2019-06-26T23:17:10.160Z,61.57
2019-06-26T23:19:40.972Z,61.31
2019-06-26T23:22:12.147Z,61.65
2019-06-26T23:24:42.750Z,61.21
2019-06-26T23:27:14.037Z,61.81
2019-06-26T23:29:45.079Z,60.55
2019-06-26T23:32:15.743Z,60.84
2019-06-26T23:34:46.134Z,62.10
2019-06-26T23:37:16.560Z,61.28
2019-06-26T23:39:46.969Z,62.11
2019-06-26T23:42:17.284Z,62.11
2019-06-26T23:44:47.924Z,62.28
2019-06-26T23:47:18.543Z,63.15
2019-06-26T23:49:48.900Z,63.06
2019-06-26T23:52:19.896Z,63.93
2019-06-26T23:54:50.277Z,63.87
2019-06-26T23:57:20.955Z,64.05
2019-06-26T23:59:51.885Z,63.19
